createdAt,value
2018-11-13T00:01:20.996Z,7.27
2018-11-13T00:03:24.789Z,7.73
2018-11-13T00:05:29.473Z,7.87
2018-11-13T00:07:33.053Z,8.33
2018-11-13T00:09:36.862Z,9.93
2018-11-13T00:11:41.461Z,8.17
2018-11-13T00:13:45.169Z,8.13
2018-11-13T00:15:48.848Z,7.80
2018-11-13T00:17:53.904Z,8.33
2018-11-13T00:19:58.325Z,8.63
2018-11-13T00:22:02.973Z,6.67
2018-11-13T00:24:06.781Z,6.30
2018-11-13T00:26:10.598Z,7.50
2018-11-13T00:28:14.233Z,8.80
2018-11-13T00:30:20.375Z,9.00
2018-11-13T00:32:23.953Z,7.77
2018-11-13T00:34:27.617Z,7.27
2018-11-13T00:36:31.279Z,7.87
2018-11-13T00:38:34.989Z,8.17
2018-11-13T00:40:38.745Z,8.13
2018-11-13T00:42:43.330Z,5.50
2018-11-13T00:44:47.029Z,5.47
2018-11-13T00:46:50.768Z,6.07
2018-11-13T00:48:54.455Z,5.80
2018-11-13T00:50:58.349Z,6.27
2018-11-13T00:53:03.033Z,6.50
2018-11-13T00:55:07.045Z,6.00
2018-11-13T00:57:10.750Z,6.83
2018-11-13T00:59:14.454Z,6.87
2018-11-13T01:01:18.456Z,6.40
2018-11-13T01:03:22.170Z,6.17
2018-11-13T01:05:26.330Z,7.00
2018-11-13T01:07:29.938Z,5.97
2018-11-13T01:09:33.673Z,6.60
2018-11-13T01:11:37.637Z,5.97
2018-11-13T01:13:41.264Z,5.43
2018-11-13T01:15:45.701Z,6.27
2018-11-13T01:17:49.689Z,6.47
2018-11-13T01:19:53.717Z,6.73
2018-11-13T01:21:58.231Z,6.53
2018-11-13T01:24:02.363Z,8.20
2018-11-13T01:26:06.513Z,6.80
2018-11-13T01:28:10.381Z,6.97
2018-11-13T01:30:16.093Z,6.73
2018-11-13T01:32:19.693Z,6.27
2018-11-13T01:34:23.285Z,5.70
2018-11-13T01:36:27.014Z,5.50
2018-11-13T01:38:30.748Z,5.47
2018-11-13T01:40:34.421Z,6.77
2018-11-13T01:42:39.174Z,6.57
2018-11-13T01:44:44.427Z,6.77
2018-11-13T01:46:48.590Z,6.10
2018-11-13T01:48:52.230Z,7.27
2018-11-13T01:50:55.875Z,7.13
2018-11-13T01:52:59.479Z,7.10
2018-11-13T01:55:04.237Z,7.20
2018-11-13T01:57:08.036Z,7.37
2018-11-13T01:59:11.663Z,7.50
2018-11-13T02:01:16.162Z,6.87
2018-11-13T02:03:19.761Z,6.47
2018-11-13T02:05:25.185Z,6.10
2018-11-13T02:07:28.848Z,6.07
2018-11-13T02:09:32.532Z,6.23
2018-11-13T02:11:36.241Z,5.80
2018-11-13T02:13:39.902Z,6.47
2018-11-13T02:15:43.505Z,5.67
2018-11-13T02:17:47.153Z,5.83
2018-11-13T02:19:50.841Z,5.97
2018-11-13T02:21:54.580Z,6.30
2018-11-13T02:23:58.314Z,6.13
2018-11-13T02:26:02.994Z,5.90
2018-11-13T02:28:06.674Z,5.20
2018-11-13T02:30:14.304Z,6.07
2018-11-13T02:32:18.028Z,4.57
2018-11-13T02:34:21.660Z,5.20
2018-11-13T02:36:25.930Z,5.47
2018-11-13T02:38:30.076Z,3.70
2018-11-13T02:40:33.665Z,4.20
2018-11-13T02:42:38.134Z,4.97
2018-11-13T02:44:41.857Z,4.90
2018-11-13T02:46:45.569Z,4.20
2018-11-13T02:48:51.269Z,3.40
2018-11-13T02:50:55.021Z,3.23
2018-11-13T02:52:58.621Z,3.07
2018-11-13T02:55:02.365Z,2.70
2018-11-13T02:57:06.166Z,2.47
2018-11-13T02:59:09.898Z,2.20
2018-11-13T03:01:13.521Z,2.70
2018-11-13T03:03:18.161Z,2.87
2018-11-13T03:05:22.513Z,3.00
2018-11-13T03:07:26.220Z,3.47
2018-11-13T03:09:29.920Z,4.57
2018-11-13T03:11:33.557Z,6.00
2018-11-13T03:13:37.219Z,6.27
2018-11-13T03:15:40.808Z,6.83
2018-11-13T03:17:45.133Z,7.07
2018-11-13T03:19:48.779Z,7.47
2018-11-13T03:21:52.601Z,7.27
2018-11-13T03:23:56.229Z,7.00
2018-11-13T03:25:59.905Z,6.50
2018-11-13T03:28:03.689Z,7.00
2018-11-13T03:30:13.331Z,6.77
2018-11-13T03:32:16.985Z,6.47
2018-11-13T03:34:20.710Z,7.63
2018-11-13T03:36:24.365Z,7.27
2018-11-13T03:38:28.625Z,7.40
2018-11-13T03:40:32.450Z,7.57
2018-11-13T03:42:36.241Z,6.97
2018-11-13T03:44:40.966Z,7.50
2018-11-13T03:46:44.605Z,7.57
2018-11-13T03:48:48.302Z,9.13
2018-11-13T03:50:52.497Z,8.23
2018-11-13T03:52:57.184Z,8.37
2018-11-13T03:55:00.897Z,9.37
2018-11-13T03:57:04.695Z,10.37
2018-11-13T03:59:08.912Z,8.87
2018-11-13T04:01:12.554Z,8.83
2018-11-13T04:03:16.257Z,9.40
2018-11-13T04:05:20.802Z,8.40
2018-11-13T04:07:24.717Z,9.70
2018-11-13T04:09:28.469Z,8.70
2018-11-13T04:11:32.237Z,8.27
2018-11-13T04:13:35.969Z,9.13
2018-11-13T04:15:39.616Z,9.70
2018-11-13T04:17:43.461Z,10.23
2018-11-13T04:19:47.129Z,8.90
2018-11-13T04:21:54.965Z,9.30
2018-11-13T04:23:59.317Z,9.07
2018-11-13T04:26:04.395Z,9.30
2018-11-13T04:28:08.229Z,10.00
2018-11-13T04:30:13.756Z,9.63
2018-11-13T04:32:17.549Z,9.43
2018-11-13T04:34:21.315Z,10.20
2018-11-13T04:36:25.203Z,9.13
2018-11-13T04:38:28.825Z,11.00
2018-11-13T04:40:32.610Z,10.70
2018-11-13T04:42:36.421Z,10.23
2018-11-13T04:44:40.130Z,9.80
2018-11-13T04:46:43.729Z,10.47
2018-11-13T04:48:47.478Z,10.20
2018-11-13T04:50:52.057Z,10.20
2018-11-13T04:52:56.534Z,10.90
2018-11-13T04:55:00.297Z,10.67
2018-11-13T04:57:04.645Z,11.23
2018-11-13T04:59:08.350Z,11.70
2018-11-13T05:01:12.157Z,12.17
2018-11-13T05:03:16.737Z,12.43
2018-11-13T05:05:22.329Z,13.10
2018-11-13T05:07:26.046Z,13.10
2018-11-13T05:09:29.744Z,13.10
2018-11-13T05:11:33.877Z,12.83
2018-11-13T05:13:37.699Z,14.40
2018-11-13T05:15:41.365Z,14.23
2018-11-13T05:17:45.865Z,14.33
2018-11-13T05:19:49.625Z,13.93
2018-11-13T05:21:53.369Z,14.60
2018-11-13T05:23:57.148Z,15.03
2018-11-13T05:26:00.849Z,14.80
2018-11-13T05:28:04.494Z,15.20
2018-11-13T05:30:13.667Z,14.93
2018-11-13T05:32:17.402Z,15.87
2018-11-13T05:34:21.165Z,15.87
2018-11-13T05:36:25.651Z,17.43
2018-11-13T05:38:30.241Z,17.13
2018-11-13T05:40:33.871Z,15.77
2018-11-13T05:42:37.654Z,17.50
2018-11-13T05:44:42.794Z,17.57
2018-11-13T05:46:47.412Z,15.23
2018-11-13T05:48:51.127Z,16.67
2018-11-13T05:50:55.897Z,15.60
2018-11-13T05:52:59.924Z,16.53
2018-11-13T05:55:03.639Z,15.17
2018-11-13T05:57:07.365Z,15.83
2018-11-13T05:59:11.078Z,15.63
2018-11-13T06:01:14.712Z,16.57
2018-11-13T06:03:19.084Z,16.50
2018-11-13T06:05:22.833Z,16.80
2018-11-13T06:07:26.445Z,16.53
2018-11-13T06:09:30.628Z,17.50
2018-11-13T06:11:34.801Z,15.53
2018-11-13T06:13:38.413Z,16.27
2018-11-13T06:15:42.175Z,16.77
2018-11-13T06:17:45.761Z,16.80
2018-11-13T06:19:49.484Z,15.17
2018-11-13T06:21:53.289Z,17.13
2018-11-13T06:23:56.985Z,17.17
2018-11-13T06:26:00.709Z,16.27
2018-11-13T06:28:04.403Z,26.53
2018-11-13T06:30:11.981Z,18.77
2018-11-13T06:32:15.661Z,19.33
2018-11-13T06:34:20.225Z,18.17
2018-11-13T06:36:24.244Z,18.83
2018-11-13T06:38:27.956Z,18.50
2018-11-13T06:40:31.635Z,19.70
2018-11-13T06:42:35.369Z,17.93
2018-11-13T06:44:38.989Z,17.80
2018-11-13T06:46:42.835Z,17.00
2018-11-13T06:48:46.483Z,17.73
2018-11-13T06:50:50.201Z,16.63
2018-11-13T06:52:53.889Z,17.33
2018-11-13T06:55:00.429Z,17.97
2018-11-13T06:57:04.181Z,15.70
2018-11-13T06:59:07.853Z,16.63
2018-11-13T07:01:12.328Z,16.27
2018-11-13T07:03:16.040Z,17.67
2018-11-13T07:05:19.877Z,17.07
2018-11-13T07:07:23.485Z,16.60
2018-11-13T07:09:27.211Z,16.60
2018-11-13T07:11:30.901Z,15.47
2018-11-13T07:13:34.581Z,15.10
2018-11-13T07:15:38.329Z,15.33
2018-11-13T07:17:43.305Z,15.17
2018-11-13T07:19:46.948Z,14.30
2018-11-13T07:21:50.745Z,15.40
2018-11-13T07:23:54.421Z,14.67
2018-11-13T07:25:58.215Z,15.20
2018-11-13T07:28:01.952Z,16.07
2018-11-13T07:30:08.009Z,15.43
2018-11-13T07:32:11.750Z,16.10
2018-11-13T07:34:16.080Z,15.60
2018-11-13T07:36:19.890Z,16.73
2018-11-13T07:38:24.673Z,17.77
2018-11-13T07:40:29.460Z,17.10
2018-11-13T07:42:33.165Z,16.87
2018-11-13T07:44:37.454Z,17.17
2018-11-13T07:46:41.251Z,16.97
2018-11-13T07:48:44.934Z,17.40
2018-11-13T07:50:48.617Z,17.73
2018-11-13T07:52:52.374Z,16.60
2018-11-13T07:54:56.126Z,16.83
2018-11-13T07:56:59.801Z,17.63
2018-11-13T07:59:03.487Z,15.00
2018-11-13T08:01:07.262Z,16.57
2018-11-13T08:03:24.617Z,15.63
2018-11-13T08:05:28.814Z,15.50
2018-11-13T08:07:32.510Z,15.43
2018-11-13T08:09:36.238Z,14.90
2018-11-13T08:11:39.848Z,14.70
2018-11-13T08:13:43.530Z,15.47
2018-11-13T08:15:47.265Z,16.37
2018-11-13T08:17:50.969Z,16.07
2018-11-13T08:19:54.630Z,16.47
2018-11-13T08:21:59.316Z,14.93
2018-11-13T08:24:02.969Z,17.40
2018-11-13T08:26:07.112Z,15.93
2018-11-13T08:28:10.744Z,17.13
2018-11-13T08:30:15.847Z,15.60
2018-11-13T08:32:19.765Z,15.67
2018-11-13T08:34:23.437Z,16.63
2018-11-13T08:36:27.159Z,15.97
2018-11-13T08:38:30.873Z,15.63
2018-11-13T08:40:34.461Z,16.90
2018-11-13T08:42:38.134Z,16.30
2018-11-13T08:44:41.846Z,15.70
2018-11-13T08:46:45.478Z,13.50
2018-11-13T08:48:49.117Z,15.87
2018-11-13T08:50:52.789Z,16.37
2018-11-13T08:52:56.438Z,15.53
2018-11-13T08:55:00.146Z,16.30
2018-11-13T08:57:03.918Z,16.13
2018-11-13T08:59:07.655Z,17.60
2018-11-13T09:01:11.775Z,17.47
2018-11-13T09:03:15.468Z,16.27
2018-11-13T09:05:19.123Z,16.97
2018-11-13T09:07:22.822Z,16.37
2018-11-13T09:09:26.557Z,17.10
2018-11-13T09:11:30.304Z,17.33
2018-11-13T09:13:33.974Z,15.97
2018-11-13T09:15:37.669Z,16.47
2018-11-13T09:17:41.623Z,16.27
2018-11-13T09:19:45.295Z,15.90
2018-11-13T09:21:49.218Z,16.93
2018-11-13T09:23:52.909Z,18.47
2018-11-13T09:25:56.606Z,15.40
2018-11-13T09:28:00.273Z,17.23
2018-11-13T09:30:04.030Z,17.03
2018-11-13T09:32:08.385Z,17.13
2018-11-13T09:34:12.103Z,16.70
2018-11-13T09:36:15.725Z,17.67
2018-11-13T09:38:19.344Z,17.47
2018-11-13T09:40:23.093Z,15.33
2018-11-13T09:42:26.843Z,14.50
2018-11-13T09:44:30.641Z,16.40
2018-11-13T09:46:35.580Z,18.10
2018-11-13T09:48:39.244Z,16.73
2018-11-13T09:50:43.115Z,18.17
2018-11-13T09:54:10.963Z,18.30
2018-11-13T09:56:14.647Z,17.73
2018-11-13T09:58:18.281Z,15.57
2018-11-13T10:00:26.204Z,16.73
2018-11-13T10:02:30.431Z,15.80
2018-11-13T10:04:34.258Z,17.13
2018-11-13T10:06:37.399Z,15.97
2018-11-13T10:08:41.201Z,16.53
2018-11-13T10:10:45.021Z,16.30
2018-11-13T10:12:48.823Z,16.67
2018-11-13T10:14:52.593Z,17.90
2018-11-13T10:16:56.293Z,21.17
2018-11-13T10:18:59.965Z,18.50
2018-11-13T10:21:03.689Z,18.33
2018-11-13T10:23:07.349Z,18.17
2018-11-13T10:25:11.661Z,19.40
2018-11-13T10:27:15.326Z,19.67
2018-11-13T10:29:19.007Z,18.87
2018-11-13T10:31:22.713Z,18.67
2018-11-13T10:33:26.410Z,19.40
2018-11-13T10:35:30.221Z,19.43
2018-11-13T10:37:34.541Z,17.83
2018-11-13T10:39:38.161Z,18.57
2018-11-13T10:41:41.835Z,17.13
2018-11-13T10:43:45.533Z,15.63
2018-11-13T10:45:49.174Z,16.93
2018-11-13T10:47:52.917Z,15.90
2018-11-13T10:49:56.602Z,15.90
2018-11-13T10:52:00.277Z,18.20
2018-11-13T10:54:03.985Z,14.40
2018-11-13T10:56:08.462Z,14.20
2018-11-13T10:58:12.305Z,14.70
2018-11-13T11:00:21.905Z,14.10
2018-11-13T11:02:31.161Z,15.87
2018-11-13T11:04:40.001Z,15.53
2018-11-13T11:06:43.666Z,17.60
2018-11-13T11:08:47.427Z,19.10
2018-11-13T11:10:51.105Z,17.93
2018-11-13T11:12:54.800Z,17.73
2018-11-13T11:14:58.513Z,16.70
2018-11-13T11:17:02.164Z,17.13
2018-11-13T11:19:05.912Z,16.90
2018-11-13T11:21:09.578Z,16.90
2018-11-13T11:23:13.231Z,16.37
2018-11-13T11:25:16.914Z,16.50
2018-11-13T11:27:20.546Z,16.33
2018-11-13T11:29:24.241Z,17.17
2018-11-13T11:31:27.895Z,15.53
2018-11-13T11:33:31.667Z,17.23
2018-11-13T11:35:35.405Z,18.37
2018-11-13T11:37:39.961Z,19.60
2018-11-13T11:39:44.461Z,18.57
2018-11-13T11:41:48.205Z,20.23
2018-11-13T11:43:51.956Z,19.87
2018-11-13T11:45:55.693Z,19.17
2018-11-13T11:47:59.333Z,18.17
2018-11-13T11:50:03.009Z,19.17
2018-11-13T11:52:06.773Z,18.37
2018-11-13T11:54:10.537Z,19.17
2018-11-13T11:56:14.202Z,17.50
2018-11-13T11:58:17.913Z,20.13
2018-11-13T12:00:26.999Z,19.30
2018-11-13T12:02:30.706Z,18.30
2018-11-13T12:04:34.537Z,18.07
2018-11-13T12:06:38.191Z,18.03
2018-11-13T12:08:42.187Z,18.50
2018-11-13T12:10:45.894Z,19.33
2018-11-13T12:12:49.529Z,20.20
2018-11-13T12:14:53.153Z,17.27
2018-11-13T12:16:56.819Z,18.57
2018-11-13T12:19:00.506Z,18.13
2018-11-13T12:21:04.763Z,17.50
2018-11-13T12:23:09.569Z,18.23
2018-11-13T12:25:14.785Z,18.60
2018-11-13T12:27:18.437Z,17.77
2018-11-13T12:29:22.948Z,17.20
2018-11-13T12:31:26.633Z,18.07
2018-11-13T12:33:32.054Z,16.90
2018-11-13T12:35:38.083Z,16.10
2018-11-13T12:37:44.309Z,16.87
2018-11-13T12:39:49.867Z,16.57
2018-11-13T12:41:56.877Z,15.97
2018-11-13T12:44:00.546Z,16.30
2018-11-13T12:46:05.358Z,16.70
2018-11-13T12:48:09.004Z,17.13
2018-11-13T12:50:13.777Z,16.83
2018-11-13T12:52:18.057Z,17.67
2018-11-13T12:54:21.798Z,17.80
2018-11-13T12:56:25.532Z,17.77
2018-11-13T12:58:30.071Z,17.83
2018-11-13T13:00:33.896Z,16.17
2018-11-13T13:02:38.323Z,15.80
2018-11-13T13:04:42.029Z,16.03
2018-11-13T13:06:45.688Z,17.63
2018-11-13T13:08:49.409Z,16.70
2018-11-13T13:10:53.033Z,16.53
2018-11-13T13:12:56.800Z,17.73
2018-11-13T13:15:00.502Z,17.13
2018-11-13T13:17:04.153Z,17.83
2018-11-13T13:19:08.775Z,19.23
2018-11-13T13:21:12.666Z,17.60
2018-11-13T13:23:16.344Z,16.90
2018-11-13T13:25:20.949Z,17.77
2018-11-13T13:27:24.617Z,19.07
2018-11-13T13:29:28.347Z,18.00
2018-11-13T13:31:32.100Z,18.30
2018-11-13T13:33:35.808Z,16.80
2018-11-13T13:35:43.028Z,17.73
2018-11-13T13:37:46.653Z,17.10
2018-11-13T13:39:50.353Z,18.53
2018-11-13T13:41:54.617Z,17.83
2018-11-13T13:43:58.730Z,18.53
2018-11-13T13:46:02.424Z,16.93
2018-11-13T13:48:07.149Z,16.80
2018-11-13T13:50:10.822Z,18.27
2018-11-13T13:52:14.545Z,16.17
2018-11-13T13:54:19.171Z,16.87
2018-11-13T13:56:22.965Z,17.87
2018-11-13T13:58:26.796Z,17.70
2018-11-13T14:00:31.624Z,17.07
2018-11-13T14:02:35.269Z,18.13
2018-11-13T14:04:38.957Z,17.60
2018-11-13T14:06:43.042Z,17.37
2018-11-13T14:08:46.841Z,18.33
2018-11-13T14:10:50.581Z,19.13
2018-11-13T14:12:54.263Z,18.90
2018-11-13T14:14:58.174Z,19.07
2018-11-13T14:17:01.797Z,18.53
2018-11-13T14:19:06.593Z,17.17
2018-11-13T14:21:10.388Z,16.93
2018-11-13T14:23:14.004Z,17.37
2018-11-13T14:25:17.753Z,16.90
2018-11-13T14:27:21.992Z,16.37
2018-11-13T14:29:25.647Z,16.33
2018-11-13T14:31:29.284Z,18.07
2018-11-13T14:33:33.037Z,17.90
2018-11-13T14:35:36.861Z,15.17
2018-11-13T14:37:40.645Z,16.90
2018-11-13T14:39:45.307Z,16.97
2018-11-13T14:41:48.937Z,16.57
2018-11-13T14:43:52.610Z,15.57
2018-11-13T14:45:56.381Z,17.10
2018-11-13T14:48:00.169Z,17.87
2018-11-13T14:50:04.645Z,17.63
2018-11-13T14:52:08.317Z,19.33
2018-11-13T14:54:11.993Z,18.73
2018-11-13T14:56:15.698Z,19.03
2018-11-13T14:58:19.505Z,18.87
2018-11-13T15:00:30.820Z,20.77
2018-11-13T15:02:34.429Z,22.00
2018-11-13T15:04:38.152Z,19.47
2018-11-13T15:06:41.889Z,20.20
2018-11-13T15:08:46.894Z,19.77
2018-11-13T15:10:53.495Z,19.33
2018-11-13T15:12:57.269Z,17.43
2018-11-13T15:15:01.002Z,19.47
2018-11-13T15:17:04.770Z,18.70
2018-11-13T15:19:09.280Z,18.63
2018-11-13T15:21:13.665Z,18.70
2018-11-13T15:23:17.524Z,17.93
2018-11-13T15:31:53.177Z,17.00
2018-11-13T15:33:56.899Z,18.60
2018-11-13T15:36:01.614Z,16.63
2018-11-13T15:38:06.108Z,15.17
2018-11-13T15:40:13.834Z,16.60
2018-11-13T15:42:17.570Z,15.47
2018-11-13T15:44:21.236Z,15.27
2018-11-13T15:46:24.913Z,14.10
2018-11-13T15:48:28.629Z,15.40
2018-11-13T15:50:33.577Z,16.23
2018-11-13T15:52:37.366Z,17.07
2018-11-13T15:54:40.965Z,16.70
2018-11-13T15:56:44.662Z,17.37
2018-11-13T15:58:48.309Z,18.67
2018-11-13T16:00:52.021Z,18.27
2018-11-13T16:02:56.631Z,17.43
2018-11-13T16:05:00.307Z,19.00
2018-11-13T16:07:04.022Z,19.90
2018-11-13T16:09:09.612Z,19.43
2018-11-13T16:11:13.280Z,18.70
2018-11-13T16:13:17.127Z,20.67
2018-11-13T16:15:21.879Z,21.23
2018-11-13T16:17:26.945Z,22.13
2018-11-13T16:19:30.683Z,21.93
2018-11-13T16:21:34.548Z,21.10
2018-11-13T16:23:38.215Z,22.70
2018-11-13T16:25:41.910Z,21.37
2018-11-13T16:27:45.801Z,18.67
2018-11-13T16:29:49.612Z,20.73
2018-11-13T16:31:53.319Z,19.60
2018-11-13T16:33:56.990Z,18.63
2018-11-13T16:36:00.717Z,19.77
2018-11-13T16:38:06.073Z,19.47
2018-11-13T16:40:12.525Z,19.97
2018-11-13T16:42:16.551Z,18.83
2018-11-13T16:44:20.093Z,16.83
2018-11-13T16:46:23.731Z,18.87
2018-11-13T16:48:27.793Z,20.00
2018-11-13T16:50:32.885Z,20.00
2018-11-13T16:52:36.662Z,21.93
2018-11-13T16:54:45.486Z,20.80
2018-11-13T16:56:53.110Z,22.33
2018-11-13T16:58:56.829Z,22.53
2018-11-13T17:01:01.332Z,20.47
2018-11-13T17:03:05.018Z,21.70
2018-11-13T17:06:34.641Z,21.40
2018-11-13T17:08:38.286Z,19.43
2018-11-13T17:10:43.086Z,20.93
2018-11-13T17:12:47.112Z,21.70
2018-11-13T17:14:50.701Z,21.50
2018-11-13T17:16:54.560Z,20.33
2018-11-13T17:18:58.828Z,17.87
2018-11-13T17:21:03.101Z,16.37
2018-11-13T17:23:07.303Z,16.20
2018-11-13T17:25:12.093Z,18.37
2018-11-13T17:27:15.761Z,18.53
2018-11-13T17:29:19.465Z,16.50
2018-11-13T17:31:23.178Z,17.97
2018-11-13T17:33:26.821Z,18.53
2018-11-13T17:35:31.162Z,17.70
2018-11-13T17:37:34.841Z,16.60
2018-11-13T17:39:38.609Z,18.30
2018-11-13T17:41:43.212Z,18.67
2018-11-13T17:43:46.934Z,16.97
2018-11-13T17:45:50.665Z,19.13
2018-11-13T17:47:54.416Z,19.30
2018-11-13T17:49:58.076Z,19.00
2018-11-13T17:52:01.686Z,19.77
2018-11-13T17:54:05.333Z,19.50
2018-11-13T17:56:09.525Z,17.87
2018-11-13T17:58:14.755Z,18.30
2018-11-13T18:00:21.973Z,18.27
2018-11-13T18:02:25.847Z,17.73
2018-11-13T18:04:30.202Z,18.17
2018-11-13T18:06:33.889Z,18.40
2018-11-13T18:08:38.305Z,18.27
2018-11-13T18:10:43.203Z,17.60
2018-11-13T18:12:46.919Z,17.70
2018-11-13T18:14:50.719Z,18.20
2018-11-13T18:16:54.350Z,18.10
2018-11-13T18:18:58.074Z,16.90
2018-11-13T18:21:01.755Z,17.40
2018-11-13T18:23:07.345Z,17.03
2018-11-13T18:25:11.987Z,17.10
2018-11-13T18:27:15.697Z,17.53
2018-11-13T18:29:19.369Z,18.53
2018-11-13T18:31:23.470Z,18.13
2018-11-13T18:33:27.186Z,17.27
2018-11-13T18:35:32.185Z,17.73
2018-11-13T18:37:35.927Z,17.37
2018-11-13T18:39:39.613Z,17.63
2018-11-13T18:41:43.449Z,17.17
2018-11-13T18:43:47.072Z,16.90
2018-11-13T18:45:50.818Z,16.37
2018-11-13T18:47:54.596Z,16.33
2018-11-13T18:49:58.509Z,16.30
2018-11-13T18:52:02.133Z,15.30
2018-11-13T18:54:06.398Z,15.77
2018-11-13T18:56:10.619Z,16.33
2018-11-13T18:58:14.333Z,15.53
2018-11-13T19:00:20.962Z,13.27
2018-11-13T19:02:24.673Z,17.00
2018-11-13T19:04:28.438Z,17.40
2018-11-13T19:06:32.127Z,15.80
2018-11-13T19:08:35.765Z,16.80
2018-11-13T19:10:40.758Z,16.43
2018-11-13T19:12:44.858Z,16.53
2018-11-13T19:14:48.519Z,16.97
2018-11-13T19:16:52.254Z,17.50
2018-11-13T19:18:56.073Z,16.60
2018-11-13T19:20:59.829Z,15.27
2018-11-13T19:23:04.258Z,17.40
2018-11-13T19:25:13.567Z,18.07
2018-11-13T19:27:17.293Z,16.50
2018-11-13T19:29:21.017Z,16.00
2018-11-13T19:31:24.614Z,17.13
2018-11-13T19:33:28.234Z,16.70
2018-11-13T19:35:32.235Z,16.40
2018-11-13T19:37:36.225Z,15.43
2018-11-13T19:39:40.029Z,16.87
2018-11-13T19:41:43.674Z,15.93
2018-11-13T19:43:47.361Z,16.83
2018-11-13T19:45:50.978Z,15.83
2018-11-13T19:47:54.681Z,15.97
2018-11-13T19:49:58.417Z,15.87
2018-11-13T19:52:02.470Z,17.07
2018-11-13T19:54:06.578Z,17.00
2018-11-13T19:56:10.258Z,17.30
2018-11-13T19:58:13.985Z,16.43
2018-11-13T20:00:20.100Z,16.90
2018-11-13T20:02:23.745Z,16.13
2018-11-13T20:04:27.566Z,15.30
2018-11-13T20:06:31.725Z,14.67
2018-11-13T20:08:35.436Z,13.97
2018-11-13T20:10:39.990Z,13.77
2018-11-13T20:12:44.430Z,12.97
2018-11-13T20:14:48.147Z,13.13
2018-11-13T20:16:51.846Z,11.47
2018-11-13T20:18:55.635Z,12.80
2018-11-13T20:20:59.321Z,11.00
2018-11-13T20:23:04.673Z,11.57
2018-11-13T20:25:12.050Z,10.33
2018-11-13T20:27:15.679Z,9.80
2018-11-13T20:29:19.294Z,9.43
2018-11-13T20:31:24.221Z,9.67
2018-11-13T20:33:28.515Z,8.63
2018-11-13T20:35:32.205Z,8.93
2018-11-13T20:37:35.899Z,8.83
2018-11-13T20:39:39.494Z,8.50
2018-11-13T20:41:43.313Z,7.43
2018-11-13T20:43:47.168Z,7.53
2018-11-13T20:45:50.814Z,6.83
2018-11-13T20:47:54.517Z,5.87
2018-11-13T20:49:58.367Z,5.90
2018-11-13T20:52:03.110Z,5.17
2018-11-13T20:54:06.847Z,4.70
2018-11-13T20:56:11.493Z,4.03
2018-11-13T20:58:15.163Z,3.50
2018-11-13T21:00:20.493Z,3.60
2018-11-13T21:02:24.927Z,3.67
2018-11-13T21:04:28.785Z,3.30
2018-11-13T21:06:32.458Z,3.80
2018-11-13T21:08:36.309Z,4.00
2018-11-13T21:10:40.462Z,3.57
2018-11-13T21:12:44.776Z,3.37
2018-11-13T21:14:48.601Z,4.23
2018-11-13T21:16:52.374Z,3.80
2018-11-13T21:18:55.984Z,2.97
2018-11-13T21:20:59.914Z,3.50
2018-11-13T21:23:03.701Z,3.23
2018-11-13T21:25:08.943Z,2.90
2018-11-13T21:27:13.295Z,3.20
2018-11-13T21:29:16.885Z,4.07
2018-11-13T21:31:20.544Z,2.83
2018-11-13T21:33:24.357Z,3.33
2018-11-13T21:35:28.562Z,3.70
2018-11-13T21:37:32.238Z,3.07
2018-11-13T21:39:36.739Z,3.07
2018-11-13T21:41:40.421Z,2.80
2018-11-13T21:43:45.247Z,3.90
2018-11-13T21:45:49.913Z,3.07
2018-11-13T21:47:53.630Z,2.67
2018-11-13T21:49:57.382Z,3.53
2018-11-13T21:52:01.234Z,2.60
2018-11-13T21:54:05.170Z,2.80
2018-11-13T21:56:08.870Z,2.80
2018-11-13T21:58:12.644Z,2.57
2018-11-13T22:00:21.749Z,2.87
2018-11-13T22:02:25.665Z,3.37
2018-11-13T22:04:30.306Z,2.70
2018-11-13T22:06:33.995Z,2.87
2018-11-13T22:08:37.621Z,2.80
2018-11-13T22:10:41.321Z,2.27
2018-11-13T22:12:45.486Z,2.67
2018-11-13T22:14:48.846Z,2.50
2018-11-13T22:16:52.951Z,2.60
2018-11-13T22:18:56.565Z,2.73
2018-11-13T22:21:00.303Z,2.53
2018-11-13T22:23:04.094Z,2.93
2018-11-13T22:25:12.506Z,2.60
2018-11-13T22:27:16.336Z,2.30
2018-11-13T22:29:20.255Z,2.40
2018-11-13T22:31:24.035Z,2.67
2018-11-13T22:33:27.757Z,2.17
2018-11-13T22:35:31.529Z,2.77
2018-11-13T22:37:35.577Z,3.07
2018-11-13T22:39:40.007Z,2.67
2018-11-13T22:41:44.433Z,2.87
2018-11-13T22:43:48.095Z,2.70
2018-11-13T22:45:52.261Z,2.57
2018-11-13T22:47:57.084Z,2.50
2018-11-13T22:50:00.866Z,2.07
2018-11-13T22:52:05.060Z,2.50
2018-11-13T22:54:09.478Z,1.80
2018-11-13T22:56:14.507Z,2.37
2018-11-13T22:58:18.161Z,2.53
2018-11-13T23:00:26.476Z,2.37
2018-11-13T23:02:30.064Z,2.20
2018-11-13T23:04:34.362Z,2.10
2018-11-13T23:06:38.037Z,2.30
2018-11-13T23:08:41.641Z,2.73
2018-11-13T23:10:45.302Z,2.40
2018-11-13T23:12:49.603Z,2.30
2018-11-13T23:14:53.293Z,2.00
2018-11-13T23:16:56.914Z,2.67
2018-11-13T23:19:00.605Z,2.00
2018-11-13T23:21:04.245Z,2.40
2018-11-13T23:23:07.841Z,3.10
2018-11-13T23:25:13.818Z,2.60
2018-11-13T23:27:17.445Z,3.10
2018-11-13T23:29:21.105Z,2.70
2018-11-13T23:31:24.854Z,3.00
2018-11-13T23:33:28.638Z,2.07
2018-11-13T23:35:32.269Z,2.47
2018-11-13T23:37:35.902Z,3.17
2018-11-13T23:39:40.521Z,2.40
2018-11-13T23:41:44.261Z,3.10
2018-11-13T23:43:48.477Z,2.77
2018-11-13T23:45:52.166Z,3.73
2018-11-13T23:47:55.799Z,2.60
2018-11-13T23:49:59.681Z,2.63
2018-11-13T23:52:03.397Z,3.03
2018-11-13T23:54:07.165Z,3.00
2018-11-13T23:56:10.967Z,3.20
2018-11-13T23:58:14.609Z,2.70
